createdAt,value
2022-10-22T00:02:21.558Z,13.02
2022-10-22T00:04:50.894Z,13.03
2022-10-22T00:07:18.549Z,13.05
2022-10-22T00:09:46.067Z,13.02
2022-10-22T00:12:15.310Z,13.07
2022-10-22T00:14:42.889Z,13.04
2022-10-22T00:17:11.483Z,13.04
2022-10-22T00:19:39.776Z,13.01
2022-10-22T00:22:08.097Z,13.04
2022-10-22T00:24:37.062Z,12.98
2022-10-22T00:27:05.554Z,12.98
2022-10-22T00:29:33.167Z,12.98
2022-10-22T00:32:00.712Z,13.01
2022-10-22T00:34:27.983Z,12.97
2022-10-22T00:36:55.108Z,13.01
2022-10-22T00:39:24.976Z,13.03
2022-10-22T00:41:53.891Z,13.00
2022-10-22T00:44:58.514Z,13.01
2022-10-22T00:47:28.602Z,13.03
2022-10-22T00:49:57.262Z,13.07
2022-10-22T00:52:24.847Z,13.06
2022-10-22T00:54:52.376Z,13.04
2022-10-22T00:57:20.574Z,13.07
2022-10-22T00:59:48.559Z,13.09
2022-10-22T01:02:19.163Z,13.13
2022-10-22T01:04:46.216Z,13.18
2022-10-22T01:07:21.791Z,13.18
2022-10-22T01:10:13.220Z,13.18
2022-10-22T01:12:54.752Z,13.20
2022-10-22T01:15:36.040Z,13.21
2022-10-22T01:18:09.800Z,13.19
2022-10-22T01:20:55.106Z,13.18
2022-10-22T01:23:33.460Z,13.20
2022-10-22T01:26:27.558Z,13.24
2022-10-22T01:29:06.937Z,13.27
2022-10-22T01:31:41.396Z,13.31
2022-10-22T01:34:11.773Z,13.33
2022-10-22T01:36:39.453Z,13.36
2022-10-22T01:39:08.312Z,13.38
2022-10-22T01:41:35.720Z,13.38
2022-10-22T01:44:02.811Z,13.38
2022-10-22T01:46:29.851Z,13.42
2022-10-22T01:49:17.730Z,13.28
2022-10-22T01:51:44.666Z,13.29
2022-10-22T01:54:28.838Z,13.26
2022-10-22T01:57:14.773Z,13.32
2022-10-22T02:00:01.616Z,13.31
2022-10-22T02:02:38.942Z,13.24
2022-10-22T02:05:15.129Z,13.26
2022-10-22T02:07:49.076Z,13.30
2022-10-22T02:10:18.289Z,13.30
2022-10-22T02:12:50.583Z,13.32
2022-10-22T02:15:20.614Z,13.34
2022-10-22T02:17:49.698Z,13.36
2022-10-22T02:20:22.317Z,13.38
2022-10-22T02:22:49.724Z,13.38
2022-10-22T02:25:16.957Z,13.40
2022-10-22T02:27:51.569Z,13.35
2022-10-22T02:30:21.052Z,13.36
2022-10-22T02:32:53.896Z,13.40
2022-10-22T02:35:25.709Z,13.44
2022-10-22T02:37:54.888Z,13.43
2022-10-22T02:40:22.646Z,13.37
2022-10-22T02:42:50.956Z,13.40
2022-10-22T02:45:19.553Z,13.37
2022-10-22T02:47:46.656Z,13.33
2022-10-22T02:50:13.811Z,13.30
2022-10-22T02:52:41.313Z,13.30
2022-10-22T02:55:08.809Z,13.36
2022-10-22T02:57:35.875Z,13.40
2022-10-22T03:00:05.299Z,13.44
2022-10-22T03:02:32.356Z,13.46
2022-10-22T03:04:59.479Z,13.48
2022-10-22T03:07:26.506Z,13.51
2022-10-22T03:09:53.527Z,13.49
2022-10-22T03:12:20.581Z,13.49
2022-10-22T03:14:47.600Z,13.50
2022-10-22T03:17:14.723Z,13.50
2022-10-22T03:19:41.693Z,13.53
2022-10-22T03:22:19.461Z,13.54
2022-10-22T03:24:50.524Z,13.56
2022-10-22T03:27:19.982Z,13.56
2022-10-22T03:29:47.828Z,13.57
2022-10-22T03:32:14.827Z,13.55
2022-10-22T03:34:41.816Z,13.57
2022-10-22T03:37:08.833Z,13.51
2022-10-22T03:39:37.123Z,13.52
2022-10-22T03:42:06.555Z,13.52
2022-10-22T03:44:35.422Z,13.52
2022-10-22T03:47:02.853Z,13.50
2022-10-22T03:49:30.047Z,13.50
2022-10-22T03:51:57.048Z,13.49
2022-10-22T03:54:24.066Z,13.40
2022-10-22T03:56:51.041Z,13.42
2022-10-22T03:59:18.219Z,13.40
2022-10-22T04:01:45.248Z,13.42
2022-10-22T04:04:12.240Z,13.42
2022-10-22T04:06:39.230Z,13.46
2022-10-22T04:09:06.324Z,13.45
2022-10-22T04:11:33.374Z,13.44
2022-10-22T04:14:00.401Z,13.44
2022-10-22T04:16:29.991Z,13.44
2022-10-22T04:18:58.160Z,13.45
2022-10-22T04:21:25.788Z,13.44
2022-10-22T04:23:53.407Z,13.40
2022-10-22T04:26:21.296Z,13.33
2022-10-22T04:28:50.334Z,13.31
2022-10-22T04:31:20.012Z,13.27
2022-10-22T04:33:47.676Z,13.26
2022-10-22T04:36:17.221Z,13.27
2022-10-22T04:38:47.273Z,13.30
2022-10-22T04:41:19.528Z,13.25
2022-10-22T04:43:47.517Z,13.23
2022-10-22T04:46:17.711Z,13.25
2022-10-22T04:48:45.619Z,13.23
2022-10-22T04:51:15.726Z,13.24
2022-10-22T04:53:43.836Z,13.25
2022-10-22T04:56:19.640Z,13.27
2022-10-22T04:58:48.589Z,13.26
2022-10-22T05:01:24.216Z,13.29
2022-10-22T05:03:53.088Z,13.30
2022-10-22T05:06:21.006Z,13.28
2022-10-22T05:08:48.826Z,13.25
2022-10-22T05:11:19.073Z,13.32
2022-10-22T05:13:46.200Z,13.30
2022-10-22T05:16:13.724Z,13.35
2022-10-22T05:18:43.191Z,13.30
2022-10-22T05:21:12.436Z,13.34
2022-10-22T05:23:39.546Z,13.40
2022-10-22T05:26:08.361Z,13.44
2022-10-22T05:28:36.291Z,13.44
2022-10-22T05:31:05.232Z,13.48
2022-10-22T05:33:33.217Z,13.46
2022-10-22T05:36:02.038Z,13.48
2022-10-22T05:38:29.114Z,13.50
2022-10-22T05:41:10.854Z,13.50
2022-10-22T05:43:39.620Z,13.53
2022-10-22T05:46:10.235Z,13.53
2022-10-22T05:48:38.057Z,13.52
2022-10-22T05:51:08.893Z,13.55
2022-10-22T05:53:38.035Z,13.52
2022-10-22T05:56:08.093Z,13.54
2022-10-22T05:58:36.894Z,13.55
2022-10-22T06:01:06.335Z,13.58
2022-10-22T06:03:33.569Z,13.60
2022-10-22T06:06:15.971Z,13.64
2022-10-22T06:08:43.015Z,13.60
2022-10-22T06:11:10.106Z,13.64
2022-10-22T06:13:37.146Z,13.63
2022-10-22T06:16:04.579Z,13.58
2022-10-22T06:18:33.030Z,13.57
2022-10-22T06:21:08.635Z,13.55
2022-10-22T06:23:37.119Z,13.60
2022-10-22T06:26:05.666Z,13.59
2022-10-22T06:28:33.412Z,13.62
2022-10-22T06:31:02.099Z,13.69
2022-10-22T06:33:31.163Z,13.76
2022-10-22T06:36:07.671Z,13.78
2022-10-22T06:38:34.995Z,13.86
2022-10-22T06:41:07.158Z,13.81
2022-10-22T06:43:34.152Z,13.85
2022-10-22T06:46:04.183Z,13.88
2022-10-22T06:48:31.430Z,13.91
2022-10-22T06:51:01.940Z,13.90
2022-10-22T06:53:29.620Z,13.90
2022-10-22T06:55:56.777Z,13.94
2022-10-22T06:58:24.227Z,13.95
2022-10-22T07:01:01.316Z,13.96
2022-10-22T07:03:28.364Z,13.97
2022-10-22T07:05:55.414Z,13.96
2022-10-22T07:08:25.263Z,14.01
2022-10-22T07:10:52.292Z,14.02
2022-10-22T07:13:19.325Z,14.00
2022-10-22T07:15:46.317Z,14.01
2022-10-22T07:18:13.400Z,14.05
2022-10-22T07:20:40.410Z,14.10
2022-10-22T07:23:08.391Z,14.10
2022-10-22T07:25:35.931Z,14.09
2022-10-22T07:28:02.926Z,14.12
2022-10-22T07:30:29.907Z,14.17
2022-10-22T07:32:56.883Z,14.20
2022-10-22T07:35:23.900Z,14.16
2022-10-22T07:37:50.897Z,14.17
2022-10-22T07:40:17.918Z,14.18
2022-10-22T07:42:44.888Z,14.29
2022-10-22T07:45:11.879Z,14.40
2022-10-22T07:47:39.642Z,14.49
2022-10-22T07:50:07.256Z,14.62
2022-10-22T07:52:34.314Z,14.72
2022-10-22T07:55:01.359Z,14.87
2022-10-22T07:57:28.345Z,14.98
2022-10-22T07:59:55.311Z,15.06
2022-10-22T08:02:22.268Z,15.05
2022-10-22T08:04:49.305Z,15.06
2022-10-22T08:07:16.374Z,15.16
2022-10-22T08:09:43.579Z,15.16
2022-10-22T08:12:10.638Z,15.21
2022-10-22T08:14:37.637Z,15.27
2022-10-22T08:17:04.694Z,15.34
2022-10-22T08:19:31.779Z,15.45
2022-10-22T08:21:59.603Z,15.52
2022-10-22T08:24:28.216Z,15.53
2022-10-22T08:26:55.241Z,15.53
2022-10-22T08:29:23.203Z,15.56
2022-10-22T08:31:50.710Z,15.53
2022-10-22T08:34:17.689Z,15.69
2022-10-22T08:36:44.724Z,15.60
2022-10-22T08:39:12.211Z,15.58
2022-10-22T08:41:44.964Z,15.57
2022-10-22T08:44:34.019Z,15.37
2022-10-22T08:47:26.351Z,15.30
2022-10-22T08:49:53.858Z,15.24
2022-10-22T08:52:21.690Z,15.47
2022-10-22T08:54:59.879Z,15.64
2022-10-22T08:57:54.989Z,15.82
2022-10-22T09:00:35.047Z,15.94
2022-10-22T09:03:17.017Z,16.14
2022-10-22T09:06:05.086Z,16.29
2022-10-22T09:08:32.256Z,16.46
2022-10-22T09:11:06.401Z,16.50
2022-10-22T09:13:33.462Z,16.67
2022-10-22T09:16:11.255Z,16.74
2022-10-22T09:18:59.825Z,16.98
2022-10-22T09:21:43.524Z,17.16
2022-10-22T09:24:25.963Z,17.11
2022-10-22T09:26:56.722Z,16.83
2022-10-22T09:29:30.883Z,16.87
2022-10-22T09:31:58.167Z,16.86
2022-10-22T09:34:25.177Z,16.86
2022-10-22T09:37:00.135Z,16.63
2022-10-22T09:39:54.728Z,16.67
2022-10-22T09:42:22.405Z,16.56
2022-10-22T09:44:55.535Z,16.42
2022-10-22T09:47:43.491Z,16.57
2022-10-22T09:50:19.817Z,16.70
2022-10-22T09:52:58.430Z,16.89
2022-10-22T09:55:26.098Z,17.18
2022-10-22T09:58:00.325Z,17.32
2022-10-22T10:00:27.932Z,17.22
2022-10-22T10:02:58.236Z,17.27
2022-10-22T10:05:32.385Z,17.49
2022-10-22T10:08:02.431Z,17.52
2022-10-22T10:10:47.055Z,17.14
2022-10-22T10:13:36.081Z,17.22
2022-10-22T10:17:00.807Z,17.12
2022-10-22T10:19:38.305Z,17.29
2022-10-22T10:22:17.105Z,17.56
2022-10-22T10:25:05.798Z,17.77
2022-10-22T10:27:43.082Z,17.70
2022-10-22T10:30:15.985Z,17.80
2022-10-22T10:33:14.981Z,17.70
2022-10-22T10:35:41.926Z,18.01
2022-10-22T10:38:31.962Z,18.20
2022-10-22T10:41:12.015Z,18.33
2022-10-22T10:43:46.879Z,18.41
2022-10-22T10:46:37.164Z,18.42
2022-10-22T10:49:24.314Z,18.43
2022-10-22T10:52:18.955Z,18.29
2022-10-22T10:54:48.125Z,18.26
2022-10-22T10:57:30.276Z,18.24
2022-10-22T11:00:01.728Z,18.13
2022-10-22T11:02:53.789Z,18.10
2022-10-22T11:05:32.707Z,17.92
2022-10-22T11:08:04.813Z,17.96
2022-10-22T11:10:41.844Z,18.03
2022-10-22T11:13:33.319Z,18.05
2022-10-22T11:16:06.514Z,17.89
2022-10-22T11:18:41.845Z,18.00
2022-10-22T11:21:21.138Z,18.13
2022-10-22T11:23:49.846Z,18.13
2022-10-22T11:26:44.236Z,18.11
2022-10-22T11:29:16.228Z,18.10
2022-10-22T11:31:44.181Z,17.96
2022-10-22T11:34:33.314Z,18.16
2022-10-22T11:37:02.561Z,18.17
2022-10-22T11:39:38.841Z,18.14
2022-10-22T11:42:19.892Z,18.36
2022-10-22T11:44:49.336Z,18.43
2022-10-22T11:47:24.443Z,18.28
2022-10-22T11:50:15.914Z,18.32
2022-10-22T11:52:54.734Z,18.36
2022-10-22T11:55:33.108Z,18.29
2022-10-22T11:58:06.693Z,18.15
2022-10-22T12:00:39.457Z,18.17
2022-10-22T12:03:39.705Z,18.17
2022-10-22T12:06:09.656Z,18.20
2022-10-22T12:08:43.852Z,18.30
2022-10-22T12:11:10.851Z,18.23
2022-10-22T12:14:03.041Z,18.39
2022-10-22T12:16:54.806Z,18.42
2022-10-22T12:19:22.729Z,18.42
2022-10-22T12:21:58.573Z,18.55
2022-10-22T12:24:30.329Z,18.62
2022-10-22T12:26:57.368Z,18.67
2022-10-22T12:29:24.460Z,18.75
2022-10-22T12:31:51.418Z,18.79
2022-10-22T12:34:23.095Z,18.74
2022-10-22T12:37:05.220Z,18.67
2022-10-22T12:39:32.042Z,18.70
2022-10-22T12:41:58.896Z,18.76
2022-10-22T12:44:25.857Z,18.54
2022-10-22T12:46:56.835Z,18.50
2022-10-22T12:49:39.044Z,18.45
2022-10-22T12:52:13.387Z,18.63
2022-10-22T12:54:41.306Z,18.62
2022-10-22T12:57:15.344Z,18.64
2022-10-22T12:59:48.810Z,18.67
2022-10-22T13:02:25.565Z,18.72
2022-10-22T13:05:14.987Z,18.72
2022-10-22T13:07:46.671Z,18.70
2022-10-22T13:10:16.796Z,18.57
2022-10-22T13:12:48.860Z,18.57
2022-10-22T13:15:27.759Z,18.75
2022-10-22T13:18:15.747Z,18.84
2022-10-22T13:21:00.947Z,18.88
2022-10-22T13:23:29.976Z,18.91
2022-10-22T13:26:12.227Z,18.97
2022-10-22T13:28:40.036Z,18.93
2022-10-22T13:31:17.152Z,18.90
2022-10-22T13:33:50.387Z,18.93
2022-10-22T13:36:17.985Z,18.86
2022-10-22T13:38:45.546Z,18.96
2022-10-22T13:41:20.913Z,19.03
2022-10-22T13:43:48.048Z,19.03
2022-10-22T13:46:15.560Z,19.03
2022-10-22T13:48:43.807Z,18.94
2022-10-22T13:51:18.169Z,18.97
2022-10-22T13:53:46.982Z,18.88
2022-10-22T13:56:15.765Z,18.78
2022-10-22T13:58:44.597Z,18.79
2022-10-22T14:01:31.845Z,18.56
2022-10-22T14:04:00.426Z,18.61
2022-10-22T14:06:31.103Z,18.56
2022-10-22T14:09:00.758Z,18.46
2022-10-22T14:11:28.231Z,18.59
2022-10-22T14:13:55.171Z,18.62
2022-10-22T14:16:28.172Z,18.61
2022-10-22T14:18:55.980Z,18.59
2022-10-22T14:21:23.104Z,18.51
2022-10-22T14:23:50.079Z,18.28
2022-10-22T14:26:25.424Z,18.23
2022-10-22T14:34:15.456Z,18.23
2022-10-22T14:36:42.618Z,18.15
2022-10-22T14:39:09.572Z,18.07
2022-10-22T14:41:36.586Z,17.88
2022-10-22T14:44:03.839Z,18.02
2022-10-22T14:46:30.849Z,18.00
2022-10-22T14:48:57.941Z,18.00
2022-10-22T14:51:25.076Z,17.96
2022-10-22T14:53:52.081Z,17.88
2022-10-22T14:56:19.694Z,17.84
2022-10-22T14:58:46.892Z,17.75
2022-10-22T15:01:14.031Z,17.58
2022-10-22T15:03:41.323Z,17.47
2022-10-22T15:06:08.445Z,17.34
2022-10-22T15:08:35.509Z,17.24
2022-10-22T15:11:05.662Z,17.16
2022-10-22T15:13:33.453Z,17.02
2022-10-22T15:16:00.887Z,16.93
2022-10-22T15:18:28.665Z,16.86
2022-10-22T15:21:00.298Z,16.75
2022-10-22T15:23:27.654Z,16.59
2022-10-22T15:26:00.560Z,16.54
2022-10-22T15:28:27.621Z,16.41
2022-10-22T15:31:13.269Z,16.28
2022-10-22T15:33:41.815Z,16.17
2022-10-22T15:36:13.615Z,16.14
2022-10-22T15:38:40.592Z,16.02
2022-10-22T15:41:09.617Z,15.99
2022-10-22T15:43:36.714Z,15.95
2022-10-22T15:46:15.232Z,15.93
2022-10-22T15:48:42.552Z,15.90
2022-10-22T15:51:17.970Z,15.90
2022-10-22T15:53:52.293Z,15.84
2022-10-22T15:56:19.326Z,15.71
2022-10-22T15:58:46.410Z,15.57
2022-10-22T16:01:14.399Z,15.44
2022-10-22T16:03:41.939Z,15.32
2022-10-22T16:06:09.583Z,15.18
2022-10-22T16:08:37.309Z,14.97
2022-10-22T16:11:04.892Z,14.88
2022-10-22T16:13:32.430Z,14.80
2022-10-22T16:16:05.472Z,14.78
2022-10-22T16:18:32.589Z,14.74
2022-10-22T16:20:59.532Z,14.75
2022-10-22T16:23:26.568Z,14.69
2022-10-22T16:25:53.525Z,14.65
2022-10-22T16:28:20.582Z,14.61
2022-10-22T16:30:47.646Z,14.61
2022-10-22T16:33:14.613Z,14.55
2022-10-22T16:35:42.577Z,14.54
2022-10-22T16:38:10.672Z,14.57
2022-10-22T16:40:38.186Z,14.56
2022-10-22T16:43:05.877Z,14.60
2022-10-22T16:45:33.104Z,14.64
2022-10-22T16:48:00.176Z,14.65
2022-10-22T16:50:27.368Z,14.62
2022-10-22T16:52:54.383Z,14.61
2022-10-22T16:55:21.380Z,14.57
2022-10-22T16:57:51.718Z,14.54
2022-10-22T17:00:19.579Z,14.59
2022-10-22T17:02:51.526Z,14.59
2022-10-22T17:05:18.563Z,14.61
2022-10-22T17:07:45.567Z,14.60
2022-10-22T17:10:12.823Z,14.66
2022-10-22T17:12:40.459Z,14.62
2022-10-22T17:15:08.170Z,14.56
2022-10-22T17:17:35.215Z,14.53
2022-10-22T17:20:02.391Z,14.39
2022-10-22T17:22:29.360Z,14.33
2022-10-22T17:25:17.202Z,14.23
2022-10-22T17:27:44.707Z,14.09
2022-10-22T17:30:16.743Z,13.99
2022-10-22T17:32:44.480Z,13.83
2022-10-22T17:35:14.797Z,13.75
2022-10-22T17:37:42.057Z,13.60
2022-10-22T17:40:10.065Z,13.49
2022-10-22T17:42:37.034Z,13.44
2022-10-22T17:45:04.380Z,13.35
2022-10-22T17:47:31.377Z,13.27
2022-10-22T17:49:58.410Z,13.23
2022-10-22T17:52:25.480Z,13.18
2022-10-22T17:54:52.456Z,13.13
2022-10-22T17:57:19.444Z,13.11
2022-10-22T17:59:46.398Z,13.00
2022-10-22T18:02:16.011Z,12.97
2022-10-22T18:04:43.598Z,12.92
2022-10-22T18:07:10.593Z,12.88
2022-10-22T18:09:39.140Z,12.82
2022-10-22T18:12:06.564Z,12.75
2022-10-22T18:14:33.614Z,12.68
2022-10-22T18:17:02.269Z,12.68
2022-10-22T18:19:29.921Z,12.59
2022-10-22T18:21:57.082Z,12.55
2022-10-22T18:24:24.227Z,12.51
2022-10-22T18:26:51.284Z,12.45
2022-10-22T18:29:19.476Z,12.40
2022-10-22T18:31:47.852Z,12.38
2022-10-22T18:34:16.656Z,12.33
2022-10-22T18:36:46.053Z,12.29
2022-10-22T18:39:15.041Z,12.26
2022-10-22T18:41:42.911Z,12.23
2022-10-22T18:44:14.109Z,12.16
2022-10-22T18:46:41.263Z,12.15
2022-10-22T18:49:08.589Z,12.13
2022-10-22T18:51:36.107Z,12.07
2022-10-22T18:54:05.784Z,12.02
2022-10-22T18:56:46.278Z,11.95
2022-10-22T18:59:20.779Z,11.92
2022-10-22T19:01:48.023Z,11.90
2022-10-22T19:04:15.340Z,11.83
2022-10-22T19:06:45.302Z,11.86
2022-10-22T19:09:14.804Z,11.86
2022-10-22T19:11:43.588Z,11.84
2022-10-22T19:14:10.658Z,11.89
2022-10-22T19:16:37.857Z,11.96
2022-10-22T19:19:06.913Z,12.03
2022-10-22T19:21:34.526Z,12.05
2022-10-22T19:24:02.054Z,12.05
2022-10-22T19:26:30.696Z,12.08
2022-10-22T19:28:58.730Z,12.04
2022-10-22T19:31:27.301Z,12.02
2022-10-22T19:33:54.287Z,11.94
2022-10-22T19:36:22.160Z,11.82
2022-10-22T19:38:49.212Z,11.84
2022-10-22T19:41:18.743Z,11.81
2022-10-22T19:43:48.920Z,11.78
2022-10-22T19:46:16.469Z,11.80
2022-10-22T19:51:31.878Z,11.74
2022-10-22T19:54:01.185Z,11.71
2022-10-22T19:56:28.837Z,11.72
2022-10-22T19:58:56.394Z,11.72
2022-10-22T20:01:24.099Z,11.74
2022-10-22T20:03:52.089Z,11.67
2022-10-22T20:06:19.675Z,11.61
2022-10-22T20:08:46.814Z,11.61
2022-10-22T20:11:20.305Z,11.60
2022-10-22T20:13:51.180Z,11.55
2022-10-22T20:16:22.288Z,11.54
2022-10-22T20:18:49.556Z,11.53
2022-10-22T20:21:18.133Z,11.55
2022-10-22T20:23:46.419Z,11.56
2022-10-22T20:26:13.687Z,11.61
2022-10-22T20:28:40.774Z,11.64
2022-10-22T20:31:15.445Z,11.70
2022-10-22T20:33:42.413Z,11.75
2022-10-22T20:36:15.971Z,11.76
2022-10-22T20:38:43.032Z,11.78
2022-10-22T20:41:12.576Z,11.80
2022-10-22T20:43:39.690Z,11.76
2022-10-22T20:46:07.676Z,11.76
2022-10-22T20:48:34.666Z,11.76
2022-10-22T20:51:01.643Z,11.79
2022-10-22T20:53:28.607Z,11.73
2022-10-22T20:55:58.774Z,11.78
2022-10-22T20:58:38.624Z,11.78
2022-10-22T21:01:06.014Z,11.82
2022-10-22T21:06:05.789Z,11.87
2022-10-22T21:08:32.788Z,11.88
2022-10-22T21:10:59.800Z,11.86
2022-10-22T21:13:26.825Z,11.87
2022-10-22T21:15:53.793Z,11.85
2022-10-22T21:18:20.776Z,11.87
2022-10-22T21:20:47.731Z,11.85
2022-10-22T21:23:14.739Z,11.84
2022-10-22T21:25:43.389Z,11.82
2022-10-22T21:28:11.084Z,11.87
2022-10-22T21:30:44.684Z,11.86
2022-10-22T21:33:11.655Z,11.81
2022-10-22T21:35:38.725Z,11.84
2022-10-22T21:38:05.835Z,11.83
2022-10-22T21:40:32.799Z,11.88
2022-10-22T21:42:59.797Z,11.79
2022-10-22T21:45:26.920Z,11.80
2022-10-22T21:47:53.921Z,11.72
2022-10-22T21:50:20.888Z,11.80
2022-10-22T21:52:47.928Z,11.78
2022-10-22T21:55:14.893Z,11.78
2022-10-22T21:57:42.143Z,11.77
2022-10-22T22:00:10.984Z,11.76
2022-10-22T22:02:46.070Z,11.71
2022-10-22T22:05:13.069Z,11.70
2022-10-22T22:07:40.044Z,11.66
2022-10-22T22:10:07.551Z,11.64
2022-10-22T22:12:34.611Z,11.68
2022-10-22T22:15:01.626Z,11.65
2022-10-22T22:17:28.611Z,11.65
2022-10-22T22:19:55.621Z,11.70
2022-10-22T22:22:22.958Z,11.65
2022-10-22T22:24:49.938Z,11.67
2022-10-22T22:27:16.936Z,11.64
2022-10-22T22:29:43.984Z,11.60
2022-10-22T22:32:10.972Z,11.54
2022-10-22T22:34:37.957Z,11.50
2022-10-22T22:37:06.922Z,11.41
2022-10-22T22:39:33.996Z,11.41
2022-10-22T22:42:01.039Z,11.43
2022-10-22T22:44:28.077Z,11.39
2022-10-22T22:46:55.024Z,11.40
2022-10-22T22:49:22.022Z,11.33
2022-10-22T22:51:49.353Z,11.26
2022-10-22T22:54:16.371Z,11.27
2022-10-22T22:56:43.345Z,11.24
2022-10-22T22:59:10.696Z,11.24
2022-10-22T23:01:38.943Z,11.22
2022-10-22T23:04:15.280Z,11.19
2022-10-22T23:06:42.833Z,11.15
2022-10-22T23:09:12.038Z,11.12
2022-10-22T23:11:40.877Z,11.11
2022-10-22T23:14:10.392Z,11.13
2022-10-22T23:16:41.520Z,11.14
2022-10-22T23:19:08.556Z,11.10
2022-10-22T23:21:39.328Z,11.12
2022-10-22T23:24:10.806Z,11.09
2022-10-22T23:26:40.915Z,11.10
2022-10-22T23:29:11.935Z,11.02
2022-10-22T23:31:39.321Z,11.02
2022-10-22T23:34:07.232Z,10.98
2022-10-22T23:36:35.882Z,11.05
2022-10-22T23:39:05.856Z,10.88
2022-10-22T23:41:33.163Z,10.82
2022-10-22T23:44:00.575Z,10.79
2022-10-22T23:46:27.842Z,10.75
2022-10-22T23:48:54.799Z,10.71
2022-10-22T23:51:22.560Z,10.70
2022-10-22T23:53:58.691Z,10.55
2022-10-22T23:56:27.599Z,10.55
2022-10-22T23:58:55.662Z,10.53
